sensor_id;sensor_type;location;lat;lon;timestamp;P1;durP1;ratioP1;P2;durP2;ratioP2
25481;SDS011;13395;50.752;4.268;2023-12-22T00:02:17;15.32;;;2.38;;
25481;SDS011;13395;50.752;4.268;2023-12-22T00:04:42;20.42;;;3.28;;
25481;SDS011;13395;50.752;4.268;2023-12-22T00:07:08;12.18;;;2.47;;
25481;SDS011;13395;50.752;4.268;2023-12-22T00:09:33;15.40;;;2.33;;
25481;SDS011;13395;50.752;4.268;2023-12-22T00:11:59;14.32;;;2.92;;
25481;SDS011;13395;50.752;4.268;2023-12-22T00:14:25;17.27;;;3.03;;
25481;SDS011;13395;50.752;4.268;2023-12-22T00:16:50;14.10;;;2.33;;
25481;SDS011;13395;50.752;4.268;2023-12-22T00:19:16;14.20;;;1.85;;
25481;SDS011;13395;50.752;4.268;2023-12-22T00:21:41;6.38;;;2.58;;
25481;SDS011;13395;50.752;4.268;2023-12-22T00:24:07;10.82;;;1.88;;
25481;SDS011;13395;50.752;4.268;2023-12-22T00:26:33;5.93;;;1.65;;
25481;SDS011;13395;50.752;4.268;2023-12-22T00:28:58;7.13;;;1.40;;
25481;SDS011;13395;50.752;4.268;2023-12-22T00:31:24;9.77;;;1.48;;
25481;SDS011;13395;50.752;4.268;2023-12-22T00:33:49;5.00;;;1.48;;
25481;SDS011;13395;50.752;4.268;2023-12-22T00:36:15;16.83;;;1.75;;
25481;SDS011;13395;50.752;4.268;2023-12-22T00:38:42;10.50;;;1.73;;
25481;SDS011;13395;50.752;4.268;2023-12-22T00:41:09;12.00;;;1.90;;
25481;SDS011;13395;50.752;4.268;2023-12-22T00:43:35;10.18;;;2.25;;
25481;SDS011;13395;50.752;4.268;2023-12-22T00:46:01;19.40;;;3.22;;
25481;SDS011;13395;50.752;4.268;2023-12-22T00:48:27;16.98;;;2.03;;
25481;SDS011;13395;50.752;4.268;2023-12-22T00:50:53;15.77;;;2.80;;
25481;SDS011;13395;50.752;4.268;2023-12-22T00:53:19;11.23;;;2.88;;
25481;SDS011;13395;50.752;4.268;2023-12-22T00:55:44;17.27;;;3.90;;
25481;SDS011;13395;50.752;4.268;2023-12-22T00:58:10;24.98;;;3.03;;
25481;SDS011;13395;50.752;4.268;2023-12-22T01:00:36;15.85;;;3.55;;
25481;SDS011;13395;50.752;4.268;2023-12-22T01:03:02;21.15;;;3.83;;
25481;SDS011;13395;50.752;4.268;2023-12-22T01:05:28;21.13;;;3.30;;
25481;SDS011;13395;50.752;4.268;2023-12-22T01:07:53;26.42;;;3.45;;
25481;SDS011;13395;50.752;4.268;2023-12-22T01:10:19;9.90;;;2.65;;
25481;SDS011;13395;50.752;4.268;2023-12-22T01:12:44;10.30;;;2.95;;
25481;SDS011;13395;50.752;4.268;2023-12-22T01:15:10;12.30;;;2.70;;
25481;SDS011;13395;50.752;4.268;2023-12-22T01:17:36;15.57;;;2.78;;
25481;SDS011;13395;50.752;4.268;2023-12-22T01:20:01;20.02;;;3.53;;
25481;SDS011;13395;50.752;4.268;2023-12-22T01:22:27;20.85;;;3.25;;
25481;SDS011;13395;50.752;4.268;2023-12-22T01:24:53;13.32;;;3.05;;
25481;SDS011;13395;50.752;4.268;2023-12-22T01:27:19;20.70;;;2.95;;
25481;SDS011;13395;50.752;4.268;2023-12-22T01:29:44;20.80;;;3.53;;
25481;SDS011;13395;50.752;4.268;2023-12-22T01:32:10;20.70;;;3.67;;
25481;SDS011;13395;50.752;4.268;2023-12-22T01:34:36;26.23;;;4.68;;
25481;SDS011;13395;50.752;4.268;2023-12-22T01:37:01;18.58;;;2.72;;
25481;SDS011;13395;50.752;4.268;2023-12-22T01:39:27;23.27;;;3.63;;
25481;SDS011;13395;50.752;4.268;2023-12-22T01:41:53;23.02;;;2.97;;
25481;SDS011;13395;50.752;4.268;2023-12-22T01:44:18;13.50;;;2.33;;
25481;SDS011;13395;50.752;4.268;2023-12-22T01:46:44;15.40;;;2.78;;
25481;SDS011;13395;50.752;4.268;2023-12-22T01:49:10;21.17;;;4.40;;
25481;SDS011;13395;50.752;4.268;2023-12-22T01:51:37;15.65;;;2.70;;
25481;SDS011;13395;50.752;4.268;2023-12-22T01:54:04;21.25;;;4.95;;
25481;SDS011;13395;50.752;4.268;2023-12-22T01:56:31;13.95;;;3.45;;
25481;SDS011;13395;50.752;4.268;2023-12-22T01:58:58;25.98;;;3.42;;
25481;SDS011;13395;50.752;4.268;2023-12-22T02:01:25;24.92;;;4.10;;
25481;SDS011;13395;50.752;4.268;2023-12-22T02:03:52;12.63;;;2.80;;
25481;SDS011;13395;50.752;4.268;2023-12-22T02:06:19;20.58;;;3.42;;
25481;SDS011;13395;50.752;4.268;2023-12-22T02:08:48;21.83;;;3.25;;
25481;SDS011;13395;50.752;4.268;2023-12-22T02:11:14;26.02;;;4.78;;
25481;SDS011;13395;50.752;4.268;2023-12-22T02:13:41;24.02;;;4.47;;
25481;SDS011;13395;50.752;4.268;2023-12-22T02:16:16;20.60;;;3.38;;
25481;SDS011;13395;50.752;4.268;2023-12-22T02:18:49;26.52;;;3.70;;
25481;SDS011;13395;50.752;4.268;2023-12-22T02:21:19;17.85;;;3.08;;
25481;SDS011;13395;50.752;4.268;2023-12-22T02:23:46;22.48;;;2.78;;
25481;SDS011;13395;50.752;4.268;2023-12-22T02:26:15;21.60;;;2.80;;
25481;SDS011;13395;50.752;4.268;2023-12-22T02:31:33;14.30;;;2.90;;
25481;SDS011;13395;50.752;4.268;2023-12-22T02:34:04;10.45;;;2.17;;
25481;SDS011;13395;50.752;4.268;2023-12-22T02:36:33;13.68;;;2.05;;
25481;SDS011;13395;50.752;4.268;2023-12-22T02:39:01;14.27;;;2.30;;
25481;SDS011;13395;50.752;4.268;2023-12-22T02:41:27;9.55;;;1.88;;
25481;SDS011;13395;50.752;4.268;2023-12-22T02:43:53;12.43;;;1.88;;
25481;SDS011;13395;50.752;4.268;2023-12-22T02:46:19;8.13;;;1.02;;
25481;SDS011;13395;50.752;4.268;2023-12-22T02:48:45;5.10;;;1.00;;
25481;SDS011;13395;50.752;4.268;2023-12-22T02:51:10;11.00;;;1.98;;
25481;SDS011;13395;50.752;4.268;2023-12-22T02:53:36;7.90;;;1.42;;
25481;SDS011;13395;50.752;4.268;2023-12-22T02:56:01;16.10;;;1.63;;
25481;SDS011;13395;50.752;4.268;2023-12-22T02:58:27;12.80;;;2.15;;
25481;SDS011;13395;50.752;4.268;2023-12-22T03:00:53;8.32;;;1.77;;
25481;SDS011;13395;50.752;4.268;2023-12-22T03:03:19;13.80;;;2.03;;
25481;SDS011;13395;50.752;4.268;2023-12-22T03:05:44;10.93;;;2.42;;
25481;SDS011;13395;50.752;4.268;2023-12-22T03:08:10;14.95;;;2.92;;
25481;SDS011;13395;50.752;4.268;2023-12-22T03:10:35;17.08;;;4.60;;
25481;SDS011;13395;50.752;4.268;2023-12-22T03:13:01;10.68;;;2.17;;
25481;SDS011;13395;50.752;4.268;2023-12-22T03:15:26;16.63;;;3.30;;
25481;SDS011;13395;50.752;4.268;2023-12-22T03:17:52;14.48;;;3.00;;
25481;SDS011;13395;50.752;4.268;2023-12-22T03:20:18;14.48;;;2.70;;
25481;SDS011;13395;50.752;4.268;2023-12-22T03:22:43;17.08;;;3.63;;
25481;SDS011;13395;50.752;4.268;2023-12-22T03:25:09;20.33;;;2.85;;
25481;SDS011;13395;50.752;4.268;2023-12-22T03:27:34;10.45;;;2.78;;
25481;SDS011;13395;50.752;4.268;2023-12-22T03:30:00;26.92;;;3.30;;
25481;SDS011;13395;50.752;4.268;2023-12-22T03:32:26;12.50;;;2.80;;
25481;SDS011;13395;50.752;4.268;2023-12-22T03:34:52;11.48;;;2.53;;
25481;SDS011;13395;50.752;4.268;2023-12-22T03:37:18;23.95;;;3.58;;
25481;SDS011;13395;50.752;4.268;2023-12-22T03:39:43;25.88;;;5.07;;
25481;SDS011;13395;50.752;4.268;2023-12-22T03:42:09;22.27;;;2.78;;
25481;SDS011;13395;50.752;4.268;2023-12-22T03:44:35;21.95;;;3.65;;
25481;SDS011;13395;50.752;4.268;2023-12-22T03:47:00;17.60;;;3.42;;
25481;SDS011;13395;50.752;4.268;2023-12-22T03:49:26;21.90;;;4.30;;
25481;SDS011;13395;50.752;4.268;2023-12-22T03:51:52;23.88;;;3.53;;
25481;SDS011;13395;50.752;4.268;2023-12-22T03:54:17;16.20;;;3.58;;
25481;SDS011;13395;50.752;4.268;2023-12-22T03:56:43;24.92;;;4.20;;
25481;SDS011;13395;50.752;4.268;2023-12-22T03:59:09;20.40;;;3.40;;
25481;SDS011;13395;50.752;4.268;2023-12-22T04:01:34;25.77;;;3.88;;
25481;SDS011;13395;50.752;4.268;2023-12-22T04:04:00;18.58;;;3.33;;
25481;SDS011;13395;50.752;4.268;2023-12-22T04:06:26;20.65;;;4.38;;
25481;SDS011;13395;50.752;4.268;2023-12-22T04:08:52;19.40;;;3.83;;
25481;SDS011;13395;50.752;4.268;2023-12-22T04:11:17;23.60;;;4.28;;
25481;SDS011;13395;50.752;4.268;2023-12-22T04:13:43;27.50;;;3.83;;
25481;SDS011;13395;50.752;4.268;2023-12-22T04:16:08;23.30;;;4.57;;
25481;SDS011;13395;50.752;4.268;2023-12-22T04:18:34;32.13;;;3.80;;
25481;SDS011;13395;50.752;4.268;2023-12-22T04:20:59;20.40;;;3.58;;
25481;SDS011;13395;50.752;4.268;2023-12-22T04:23:25;37.80;;;5.53;;
25481;SDS011;13395;50.752;4.268;2023-12-22T04:25:51;23.70;;;3.08;;
25481;SDS011;13395;50.752;4.268;2023-12-22T04:28:16;27.17;;;3.50;;
25481;SDS011;13395;50.752;4.268;2023-12-22T04:30:42;23.70;;;3.20;;
25481;SDS011;13395;50.752;4.268;2023-12-22T04:33:07;18.48;;;3.63;;
25481;SDS011;13395;50.752;4.268;2023-12-22T04:35:33;17.38;;;3.20;;
25481;SDS011;13395;50.752;4.268;2023-12-22T04:37:59;29.85;;;3.90;;
25481;SDS011;13395;50.752;4.268;2023-12-22T04:40:24;22.67;;;4.55;;
25481;SDS011;13395;50.752;4.268;2023-12-22T04:42:50;32.47;;;4.05;;
25481;SDS011;13395;50.752;4.268;2023-12-22T04:45:16;21.92;;;5.28;;
25481;SDS011;13395;50.752;4.268;2023-12-22T04:47:42;35.10;;;4.13;;
25481;SDS011;13395;50.752;4.268;2023-12-22T04:50:08;28.52;;;4.32;;
25481;SDS011;13395;50.752;4.268;2023-12-22T04:52:33;28.42;;;3.92;;
25481;SDS011;13395;50.752;4.268;2023-12-22T04:54:59;33.63;;;6.55;;
25481;SDS011;13395;50.752;4.268;2023-12-22T04:57:24;34.72;;;4.95;;
25481;SDS011;13395;50.752;4.268;2023-12-22T04:59:50;26.65;;;4.15;;
25481;SDS011;13395;50.752;4.268;2023-12-22T05:02:16;28.30;;;4.72;;
25481;SDS011;13395;50.752;4.268;2023-12-22T05:04:41;42.92;;;4.85;;
25481;SDS011;13395;50.752;4.268;2023-12-22T05:07:07;41.28;;;4.60;;
25481;SDS011;13395;50.752;4.268;2023-12-22T05:09:34;32.78;;;4.72;;
25481;SDS011;13395;50.752;4.268;2023-12-22T05:12:00;28.17;;;4.78;;
25481;SDS011;13395;50.752;4.268;2023-12-22T05:14:25;28.75;;;6.53;;
25481;SDS011;13395;50.752;4.268;2023-12-22T05:16:51;29.95;;;5.55;;
25481;SDS011;13395;50.752;4.268;2023-12-22T05:19:20;31.88;;;4.22;;
25481;SDS011;13395;50.752;4.268;2023-12-22T05:21:46;29.42;;;4.50;;
25481;SDS011;13395;50.752;4.268;2023-12-22T05:24:11;18.42;;;3.50;;
25481;SDS011;13395;50.752;4.268;2023-12-22T05:26:37;40.80;;;5.03;;
25481;SDS011;13395;50.752;4.268;2023-12-22T05:29:02;33.33;;;4.63;;
25481;SDS011;13395;50.752;4.268;2023-12-22T05:31:28;23.85;;;3.85;;
25481;SDS011;13395;50.752;4.268;2023-12-22T05:33:55;22.15;;;4.53;;
25481;SDS011;13395;50.752;4.268;2023-12-22T05:36:21;24.98;;;4.90;;
25481;SDS011;13395;50.752;4.268;2023-12-22T05:38:47;29.05;;;4.00;;
25481;SDS011;13395;50.752;4.268;2023-12-22T05:41:13;27.67;;;4.50;;
25481;SDS011;13395;50.752;4.268;2023-12-22T05:43:38;38.58;;;5.72;;
25481;SDS011;13395;50.752;4.268;2023-12-22T05:46:04;36.88;;;5.72;;
25481;SDS011;13395;50.752;4.268;2023-12-22T05:48:30;25.10;;;3.63;;
25481;SDS011;13395;50.752;4.268;2023-12-22T05:50:58;29.58;;;4.85;;
25481;SDS011;13395;50.752;4.268;2023-12-22T05:53:24;29.33;;;4.15;;
25481;SDS011;13395;50.752;4.268;2023-12-22T05:55:50;21.98;;;4.63;;
25481;SDS011;13395;50.752;4.268;2023-12-22T05:58:16;19.40;;;3.70;;
25481;SDS011;13395;50.752;4.268;2023-12-22T06:00:41;23.65;;;3.72;;
25481;SDS011;13395;50.752;4.268;2023-12-22T06:03:07;27.20;;;3.83;;
25481;SDS011;13395;50.752;4.268;2023-12-22T06:05:33;28.20;;;4.78;;
25481;SDS011;13395;50.752;4.268;2023-12-22T06:07:58;28.05;;;4.35;;
25481;SDS011;13395;50.752;4.268;2023-12-22T06:10:24;25.02;;;4.18;;
25481;SDS011;13395;50.752;4.268;2023-12-22T06:12:50;24.27;;;5.25;;
25481;SDS011;13395;50.752;4.268;2023-12-22T06:15:15;22.35;;;4.32;;
25481;SDS011;13395;50.752;4.268;2023-12-22T06:17:41;23.90;;;3.38;;
25481;SDS011;13395;50.752;4.268;2023-12-22T06:20:07;17.00;;;3.17;;
25481;SDS011;13395;50.752;4.268;2023-12-22T06:22:33;31.45;;;3.47;;
25481;SDS011;13395;50.752;4.268;2023-12-22T06:24:58;22.15;;;3.53;;
25481;SDS011;13395;50.752;4.268;2023-12-22T06:27:24;16.88;;;3.35;;
25481;SDS011;13395;50.752;4.268;2023-12-22T06:29:50;18.27;;;2.70;;
25481;SDS011;13395;50.752;4.268;2023-12-22T06:32:15;13.73;;;3.08;;
25481;SDS011;13395;50.752;4.268;2023-12-22T06:34:42;9.27;;;2.38;;
25481;SDS011;13395;50.752;4.268;2023-12-22T06:37:08;16.98;;;2.40;;
25481;SDS011;13395;50.752;4.268;2023-12-22T06:39:33;13.98;;;1.65;;
25481;SDS011;13395;50.752;4.268;2023-12-22T06:41:59;13.88;;;2.45;;
25481;SDS011;13395;50.752;4.268;2023-12-22T06:44:25;13.48;;;2.33;;
25481;SDS011;13395;50.752;4.268;2023-12-22T06:46:51;12.27;;;2.00;;
25481;SDS011;13395;50.752;4.268;2023-12-22T06:49:17;12.80;;;2.20;;
25481;SDS011;13395;50.752;4.268;2023-12-22T06:51:43;8.02;;;1.50;;
25481;SDS011;13395;50.752;4.268;2023-12-22T06:54:08;21.17;;;4.03;;
25481;SDS011;13395;50.752;4.268;2023-12-22T06:56:34;12.35;;;2.08;;
25481;SDS011;13395;50.752;4.268;2023-12-22T06:59:00;11.75;;;1.92;;
25481;SDS011;13395;50.752;4.268;2023-12-22T07:03:57;10.18;;;2.05;;
25481;SDS011;13395;50.752;4.268;2023-12-22T07:06:25;12.15;;;1.80;;
25481;SDS011;13395;50.752;4.268;2023-12-22T07:11:44;8.02;;;2.17;;
25481;SDS011;13395;50.752;4.268;2023-12-22T07:14:17;13.90;;;1.80;;
25481;SDS011;13395;50.752;4.268;2023-12-22T07:16:43;12.60;;;2.17;;
25481;SDS011;13395;50.752;4.268;2023-12-22T07:19:09;11.25;;;1.73;;
25481;SDS011;13395;50.752;4.268;2023-12-22T07:21:37;9.68;;;1.80;;
25481;SDS011;13395;50.752;4.268;2023-12-22T07:24:04;9.25;;;1.40;;
25481;SDS011;13395;50.752;4.268;2023-12-22T07:26:30;8.32;;;1.63;;
25481;SDS011;13395;50.752;4.268;2023-12-22T07:28:56;10.00;;;1.70;;
25481;SDS011;13395;50.752;4.268;2023-12-22T07:31:21;8.80;;;1.70;;
25481;SDS011;13395;50.752;4.268;2023-12-22T07:33:47;12.68;;;2.00;;
25481;SDS011;13395;50.752;4.268;2023-12-22T07:36:13;11.77;;;1.98;;
25481;SDS011;13395;50.752;4.268;2023-12-22T07:38:39;11.00;;;1.52;;
25481;SDS011;13395;50.752;4.268;2023-12-22T07:41:05;11.82;;;3.05;;
25481;SDS011;13395;50.752;4.268;2023-12-22T07:43:31;9.57;;;1.52;;
25481;SDS011;13395;50.752;4.268;2023-12-22T07:45:56;5.70;;;1.25;;
25481;SDS011;13395;50.752;4.268;2023-12-22T07:48:22;3.53;;;1.05;;
25481;SDS011;13395;50.752;4.268;2023-12-22T07:50:49;10.10;;;0.93;;
25481;SDS011;13395;50.752;4.268;2023-12-22T07:53:15;4.70;;;1.02;;
25481;SDS011;13395;50.752;4.268;2023-12-22T07:55:40;4.95;;;0.85;;
25481;SDS011;13395;50.752;4.268;2023-12-22T07:58:06;6.93;;;1.13;;
25481;SDS011;13395;50.752;4.268;2023-12-22T08:00:32;5.18;;;1.02;;
25481;SDS011;13395;50.752;4.268;2023-12-22T08:02:58;2.85;;;0.88;;
25481;SDS011;13395;50.752;4.268;2023-12-22T08:05:25;3.10;;;1.00;;
25481;SDS011;13395;50.752;4.268;2023-12-22T08:07:51;4.90;;;1.35;;
25481;SDS011;13395;50.752;4.268;2023-12-22T08:10:16;3.80;;;1.00;;
25481;SDS011;13395;50.752;4.268;2023-12-22T08:12:42;2.28;;;0.73;;
25481;SDS011;13395;50.752;4.268;2023-12-22T08:15:08;4.65;;;0.95;;
25481;SDS011;13395;50.752;4.268;2023-12-22T08:17:35;3.15;;;0.85;;
25481;SDS011;13395;50.752;4.268;2023-12-22T08:20:02;3.45;;;1.10;;
25481;SDS011;13395;50.752;4.268;2023-12-22T08:22:29;3.55;;;1.10;;
25481;SDS011;13395;50.752;4.268;2023-12-22T08:24:54;4.72;;;1.27;;
25481;SDS011;13395;50.752;4.268;2023-12-22T08:27:20;4.60;;;1.20;;
25481;SDS011;13395;50.752;4.268;2023-12-22T08:29:45;5.53;;;1.83;;
25481;SDS011;13395;50.752;4.268;2023-12-22T08:32:11;5.90;;;1.95;;
25481;SDS011;13395;50.752;4.268;2023-12-22T08:34:37;9.07;;;2.17;;
25481;SDS011;13395;50.752;4.268;2023-12-22T08:37:03;5.78;;;1.85;;
25481;SDS011;13395;50.752;4.268;2023-12-22T08:39:28;6.53;;;2.50;;
25481;SDS011;13395;50.752;4.268;2023-12-22T08:41:54;7.30;;;2.70;;
25481;SDS011;13395;50.752;4.268;2023-12-22T08:44:20;10.00;;;2.55;;
25481;SDS011;13395;50.752;4.268;2023-12-22T08:46:45;9.40;;;2.80;;
25481;SDS011;13395;50.752;4.268;2023-12-22T08:49:11;11.88;;;2.80;;
25481;SDS011;13395;50.752;4.268;2023-12-22T08:51:37;10.50;;;3.00;;
25481;SDS011;13395;50.752;4.268;2023-12-22T08:54:02;11.02;;;3.13;;
25481;SDS011;13395;50.752;4.268;2023-12-22T08:56:31;5.93;;;2.70;;
25481;SDS011;13395;50.752;4.268;2023-12-22T08:58:56;5.50;;;2.38;;
25481;SDS011;13395;50.752;4.268;2023-12-22T09:01:24;8.90;;;2.83;;
25481;SDS011;13395;50.752;4.268;2023-12-22T09:03:50;9.60;;;3.42;;
25481;SDS011;13395;50.752;4.268;2023-12-22T09:06:18;8.35;;;2.60;;
25481;SDS011;13395;50.752;4.268;2023-12-22T09:08:44;8.00;;;1.65;;
25481;SDS011;13395;50.752;4.268;2023-12-22T09:11:15;7.10;;;2.30;;
25481;SDS011;13395;50.752;4.268;2023-12-22T09:13:42;6.88;;;2.03;;
25481;SDS011;13395;50.752;4.268;2023-12-22T09:16:08;6.35;;;2.60;;
25481;SDS011;13395;50.752;4.268;2023-12-22T09:18:34;6.35;;;1.73;;
25481;SDS011;13395;50.752;4.268;2023-12-22T09:21:01;4.45;;;1.83;;
25481;SDS011;13395;50.752;4.268;2023-12-22T09:23:27;3.05;;;1.42;;
25481;SDS011;13395;50.752;4.268;2023-12-22T09:25:54;8.45;;;1.83;;
25481;SDS011;13395;50.752;4.268;2023-12-22T09:28:19;7.25;;;2.00;;
25481;SDS011;13395;50.752;4.268;2023-12-22T09:30:45;7.80;;;1.63;;
25481;SDS011;13395;50.752;4.268;2023-12-22T09:33:11;5.63;;;1.05;;
25481;SDS011;13395;50.752;4.268;2023-12-22T09:35:37;6.03;;;1.17;;
25481;SDS011;13395;50.752;4.268;2023-12-22T09:38:06;5.10;;;1.23;;
25481;SDS011;13395;50.752;4.268;2023-12-22T09:40:33;4.63;;;1.40;;
25481;SDS011;13395;50.752;4.268;2023-12-22T09:43:01;3.22;;;1.10;;
25481;SDS011;13395;50.752;4.268;2023-12-22T09:45:27;5.88;;;1.25;;
25481;SDS011;13395;50.752;4.268;2023-12-22T09:47:55;8.75;;;1.42;;
25481;SDS011;13395;50.752;4.268;2023-12-22T09:50:22;1.95;;;0.88;;
25481;SDS011;13395;50.752;4.268;2023-12-22T09:52:49;3.92;;;1.02;;
25481;SDS011;13395;50.752;4.268;2023-12-22T09:55:15;7.07;;;1.40;;
25481;SDS011;13395;50.752;4.268;2023-12-22T09:57:42;3.97;;;1.20;;
25481;SDS011;13395;50.752;4.268;2023-12-22T10:00:09;2.05;;;1.00;;
25481;SDS011;13395;50.752;4.268;2023-12-22T10:02:37;3.15;;;1.00;;
25481;SDS011;13395;50.752;4.268;2023-12-22T10:05:04;2.33;;;0.82;;
25481;SDS011;13395;50.752;4.268;2023-12-22T10:07:32;3.15;;;1.38;;
25481;SDS011;13395;50.752;4.268;2023-12-22T10:09:59;4.28;;;0.90;;
25481;SDS011;13395;50.752;4.268;2023-12-22T10:12:26;4.20;;;0.95;;
25481;SDS011;13395;50.752;4.268;2023-12-22T10:14:55;5.65;;;1.27;;
25481;SDS011;13395;50.752;4.268;2023-12-22T10:17:21;4.35;;;1.00;;
25481;SDS011;13395;50.752;4.268;2023-12-22T10:19:47;4.60;;;1.10;;
25481;SDS011;13395;50.752;4.268;2023-12-22T10:22:13;4.60;;;0.90;;
25481;SDS011;13395;50.752;4.268;2023-12-22T10:24:43;3.47;;;0.98;;
25481;SDS011;13395;50.752;4.268;2023-12-22T10:27:13;2.90;;;0.77;;
25481;SDS011;13395;50.752;4.268;2023-12-22T10:29:40;3.00;;;0.98;;
25481;SDS011;13395;50.752;4.268;2023-12-22T10:32:07;1.70;;;0.63;;
25481;SDS011;13395;50.752;4.268;2023-12-22T10:34:33;4.10;;;0.77;;
25481;SDS011;13395;50.752;4.268;2023-12-22T10:37:00;5.78;;;0.73;;
25481;SDS011;13395;50.752;4.268;2023-12-22T10:39:29;3.22;;;1.13;;
25481;SDS011;13395;50.752;4.268;2023-12-22T10:41:56;6.68;;;1.27;;
25481;SDS011;13395;50.752;4.268;2023-12-22T10:44:26;2.35;;;0.90;;
25481;SDS011;13395;50.752;4.268;2023-12-22T10:46:55;2.45;;;1.10;;
25481;SDS011;13395;50.752;4.268;2023-12-22T10:49:22;3.15;;;1.10;;
25481;SDS011;13395;50.752;4.268;2023-12-22T10:51:48;3.10;;;1.40;;
25481;SDS011;13395;50.752;4.268;2023-12-22T10:54:15;2.63;;;0.95;;
25481;SDS011;13395;50.752;4.268;2023-12-22T10:56:41;8.10;;;1.77;;
25481;SDS011;13395;50.752;4.268;2023-12-22T10:59:08;3.40;;;1.20;;
25481;SDS011;13395;50.752;4.268;2023-12-22T11:01:35;2.95;;;1.52;;
25481;SDS011;13395;50.752;4.268;2023-12-22T11:04:05;2.83;;;0.95;;
25481;SDS011;13395;50.752;4.268;2023-12-22T11:06:36;3.25;;;1.52;;
25481;SDS011;13395;50.752;4.268;2023-12-22T11:09:06;6.15;;;1.48;;
25481;SDS011;13395;50.752;4.268;2023-12-22T11:11:38;8.05;;;1.40;;
25481;SDS011;13395;50.752;4.268;2023-12-22T11:14:05;2.45;;;1.20;;
25481;SDS011;13395;50.752;4.268;2023-12-22T11:16:33;5.85;;;1.45;;
25481;SDS011;13395;50.752;4.268;2023-12-22T11:19:03;3.58;;;1.45;;
25481;SDS011;13395;50.752;4.268;2023-12-22T11:21:29;1.55;;;0.80;;
25481;SDS011;13395;50.752;4.268;2023-12-22T11:23:55;3.13;;;1.08;;
25481;SDS011;13395;50.752;4.268;2023-12-22T11:26:23;1.63;;;1.10;;
25481;SDS011;13395;50.752;4.268;2023-12-22T11:28:50;1.98;;;1.20;;
25481;SDS011;13395;50.752;4.268;2023-12-22T11:31:17;3.63;;;1.23;;
25481;SDS011;13395;50.752;4.268;2023-12-22T11:33:44;3.58;;;1.30;;
25481;SDS011;13395;50.752;4.268;2023-12-22T11:36:11;3.72;;;1.42;;
25481;SDS011;13395;50.752;4.268;2023-12-22T11:38:39;2.65;;;1.15;;
25481;SDS011;13395;50.752;4.268;2023-12-22T11:41:05;8.35;;;1.15;;
25481;SDS011;13395;50.752;4.268;2023-12-22T11:43:34;3.38;;;1.00;;
25481;SDS011;13395;50.752;4.268;2023-12-22T11:46:01;1.77;;;0.80;;
25481;SDS011;13395;50.752;4.268;2023-12-22T11:48:28;0.77;;;0.63;;
25481;SDS011;13395;50.752;4.268;2023-12-22T11:50:55;2.75;;;0.90;;
25481;SDS011;13395;50.752;4.268;2023-12-22T11:53:22;1.35;;;0.80;;
25481;SDS011;13395;50.752;4.268;2023-12-22T11:55:58;1.95;;;1.05;;
25481;SDS011;13395;50.752;4.268;2023-12-22T11:58:42;7.25;;;1.20;;
25481;SDS011;13395;50.752;4.268;2023-12-22T12:03:42;6.60;;;;;
25481;SDS011;13395;50.752;4.268;2023-12-22T12:08:41;2.13;;;0.90;;
25481;SDS011;13395;50.752;4.268;2023-12-22T12:11:07;2.50;;;0.70;;
25481;SDS011;13395;50.752;4.268;2023-12-22T12:13:33;2.70;;;0.90;;
25481;SDS011;13395;50.752;4.268;2023-12-22T12:15:59;1.75;;;0.85;;
25481;SDS011;13395;50.752;4.268;2023-12-22T12:18:29;4.43;;;0.82;;
25481;SDS011;13395;50.752;4.268;2023-12-22T12:20:56;4.70;;;0.82;;
25481;SDS011;13395;50.752;4.268;2023-12-22T12:23:25;3.65;;;0.80;;
25481;SDS011;13395;50.752;4.268;2023-12-22T12:25:53;1.95;;;0.70;;
25481;SDS011;13395;50.752;4.268;2023-12-22T12:28:26;1.73;;;0.63;;
25481;SDS011;13395;50.752;4.268;2023-12-22T12:31:00;2.65;;;0.70;;
25481;SDS011;13395;50.752;4.268;2023-12-22T12:33:30;4.25;;;0.70;;
25481;SDS011;13395;50.752;4.268;2023-12-22T12:35:58;3.22;;;0.82;;
25481;SDS011;13395;50.752;4.268;2023-12-22T12:41:14;3.33;;;0.50;;
25481;SDS011;13395;50.752;4.268;2023-12-22T12:43:41;3.50;;;1.00;;
25481;SDS011;13395;50.752;4.268;2023-12-22T12:46:10;4.60;;;0.60;;
25481;SDS011;13395;50.752;4.268;2023-12-22T12:48:36;1.50;;;0.55;;
25481;SDS011;13395;50.752;4.268;2023-12-22T12:51:05;2.15;;;0.95;;
25481;SDS011;13395;50.752;4.268;2023-12-22T12:53:32;1.55;;;0.68;;
25481;SDS011;13395;50.752;4.268;2023-12-22T12:55:58;6.80;;;0.90;;
25481;SDS011;13395;50.752;4.268;2023-12-22T12:58:30;3.40;;;0.65;;
25481;SDS011;13395;50.752;4.268;2023-12-22T13:01:07;5.88;;;1.38;;
25481;SDS011;13395;50.752;4.268;2023-12-22T13:03:54;4.63;;;0.80;;
25481;SDS011;13395;50.752;4.268;2023-12-22T13:08:47;5.78;;;0.70;;
25481;SDS011;13395;50.752;4.268;2023-12-22T13:11:14;5.45;;;0.95;;
25481;SDS011;13395;50.752;4.268;2023-12-22T13:13:40;4.97;;;0.77;;
25481;SDS011;13395;50.752;4.268;2023-12-22T13:16:07;4.20;;;1.40;;
25481;SDS011;13395;50.752;4.268;2023-12-22T13:18:33;5.47;;;0.80;;
25481;SDS011;13395;50.752;4.268;2023-12-22T13:21:00;4.47;;;0.68;;
25481;SDS011;13395;50.752;4.268;2023-12-22T13:23:25;4.55;;;0.63;;
25481;SDS011;13395;50.752;4.268;2023-12-22T13:25:51;10.38;;;0.98;;
25481;SDS011;13395;50.752;4.268;2023-12-22T13:28:24;2.47;;;0.73;;
25481;SDS011;13395;50.752;4.268;2023-12-22T13:30:51;5.63;;;1.08;;
25481;SDS011;13395;50.752;4.268;2023-12-22T13:33:16;3.75;;;0.60;;
25481;SDS011;13395;50.752;4.268;2023-12-22T13:35:42;1.95;;;0.80;;
25481;SDS011;13395;50.752;4.268;2023-12-22T13:38:08;3.25;;;0.85;;
25481;SDS011;13395;50.752;4.268;2023-12-22T13:40:34;4.47;;;1.00;;
25481;SDS011;13395;50.752;4.268;2023-12-22T13:43:00;2.40;;;0.68;;
25481;SDS011;13395;50.752;4.268;2023-12-22T13:45:27;5.15;;;0.85;;
25481;SDS011;13395;50.752;4.268;2023-12-22T13:47:53;5.05;;;0.80;;
25481;SDS011;13395;50.752;4.268;2023-12-22T13:50:19;4.03;;;0.70;;
25481;SDS011;13395;50.752;4.268;2023-12-22T13:52:48;2.92;;;0.82;;
25481;SDS011;13395;50.752;4.268;2023-12-22T13:55:15;3.78;;;0.80;;
25481;SDS011;13395;50.752;4.268;2023-12-22T13:57:42;4.18;;;0.70;;
25481;SDS011;13395;50.752;4.268;2023-12-22T14:02:47;2.88;;;0.60;;
25481;SDS011;13395;50.752;4.268;2023-12-22T14:05:16;4.95;;;1.30;;
25481;SDS011;13395;50.752;4.268;2023-12-22T14:07:45;4.22;;;0.63;;
25481;SDS011;13395;50.752;4.268;2023-12-22T14:10:12;8.43;;;0.90;;
25481;SDS011;13395;50.752;4.268;2023-12-22T14:12:38;2.10;;;0.70;;
25481;SDS011;13395;50.752;4.268;2023-12-22T14:15:07;3.67;;;0.80;;
25481;SDS011;13395;50.752;4.268;2023-12-22T14:17:34;4.43;;;0.88;;
25481;SDS011;13395;50.752;4.268;2023-12-22T14:19:59;3.10;;;0.70;;
25481;SDS011;13395;50.752;4.268;2023-12-22T14:22:25;2.53;;;0.65;;
25481;SDS011;13395;50.752;4.268;2023-12-22T14:24:54;5.72;;;0.65;;
25481;SDS011;13395;50.752;4.268;2023-12-22T14:27:20;4.85;;;1.45;;
25481;SDS011;13395;50.752;4.268;2023-12-22T14:29:48;4.18;;;0.93;;
25481;SDS011;13395;50.752;4.268;2023-12-22T14:32:13;3.78;;;0.90;;
25481;SDS011;13395;50.752;4.268;2023-12-22T14:34:46;3.35;;;0.70;;
25481;SDS011;13395;50.752;4.268;2023-12-22T14:37:12;4.65;;;1.08;;
25481;SDS011;13395;50.752;4.268;2023-12-22T14:39:38;3.95;;;0.98;;
25481;SDS011;13395;50.752;4.268;2023-12-22T14:42:04;4.82;;;0.82;;
25481;SDS011;13395;50.752;4.268;2023-12-22T14:44:30;3.00;;;0.90;;
25481;SDS011;13395;50.752;4.268;2023-12-22T14:46:55;4.25;;;1.25;;
25481;SDS011;13395;50.752;4.268;2023-12-22T14:49:21;4.97;;;1.17;;
25481;SDS011;13395;50.752;4.268;2023-12-22T14:51:47;2.40;;;0.60;;
25481;SDS011;13395;50.752;4.268;2023-12-22T14:54:19;1.98;;;0.77;;
25481;SDS011;13395;50.752;4.268;2023-12-22T14:56:46;7.80;;;1.15;;
25481;SDS011;13395;50.752;4.268;2023-12-22T14:59:12;7.35;;;1.40;;